createdAt,value
2023-03-20T00:02:19.525Z,11.43
2023-03-20T00:04:46.237Z,11.68
2023-03-20T00:07:12.915Z,14.27
2023-03-20T00:09:39.524Z,11.70
2023-03-20T00:12:06.466Z,11.50
2023-03-20T00:14:34.245Z,12.15
2023-03-20T00:17:01.051Z,9.82
2023-03-20T00:19:29.485Z,10.15
2023-03-20T00:21:55.844Z,10.07
2023-03-20T00:24:22.904Z,14.02
2023-03-20T00:26:50.647Z,12.95
2023-03-20T00:29:22.473Z,9.93
2023-03-20T00:31:49.510Z,9.65
2023-03-20T00:34:19.628Z,10.68
2023-03-20T00:36:46.428Z,10.88
2023-03-20T00:39:12.973Z,11.10
2023-03-20T00:41:39.470Z,12.00
2023-03-20T00:44:15.744Z,14.02
2023-03-20T00:46:42.484Z,13.95
2023-03-20T00:49:12.205Z,13.70
2023-03-20T00:51:39.640Z,16.88
2023-03-20T00:54:11.397Z,15.07
2023-03-20T00:56:43.005Z,13.27
2023-03-20T00:59:14.063Z,11.85
2023-03-20T01:01:42.226Z,13.80
2023-03-20T01:04:13.132Z,13.80
2023-03-20T01:06:39.658Z,14.32
2023-03-20T01:09:06.626Z,12.52
2023-03-20T01:11:33.298Z,15.30
2023-03-20T01:13:59.690Z,14.52
2023-03-20T01:16:27.035Z,17.25
2023-03-20T01:18:54.050Z,19.23
2023-03-20T01:21:21.033Z,24.50
2023-03-20T01:23:48.779Z,25.08
2023-03-20T01:26:23.561Z,30.55
2023-03-20T01:28:51.969Z,31.02
2023-03-20T01:31:20.999Z,33.08
2023-03-20T01:33:47.566Z,32.05
2023-03-20T01:36:15.352Z,36.72
2023-03-20T01:38:42.085Z,33.70
2023-03-20T01:41:18.261Z,35.63
2023-03-20T01:43:46.156Z,37.33
2023-03-20T01:46:19.159Z,33.90
2023-03-20T01:48:52.290Z,29.83
2023-03-20T01:51:22.456Z,38.58
2023-03-20T01:53:52.841Z,33.35
2023-03-20T01:56:19.945Z,25.27
2023-03-20T01:58:54.405Z,40.22
2023-03-20T02:01:21.868Z,41.20
2023-03-20T02:03:52.161Z,41.70
2023-03-20T02:06:37.831Z,40.45
2023-03-20T02:09:14.007Z,45.15
2023-03-20T02:11:45.167Z,41.47
2023-03-20T02:14:12.915Z,41.72
2023-03-20T02:16:54.270Z,40.45
2023-03-20T02:19:36.120Z,35.03
2023-03-20T02:22:02.673Z,36.70
2023-03-20T02:24:41.223Z,36.97
2023-03-20T02:27:14.191Z,38.70
2023-03-20T02:29:45.673Z,37.58
2023-03-20T02:32:36.736Z,35.88
2023-03-20T02:35:06.505Z,35.95
2023-03-20T02:37:36.178Z,37.63
2023-03-20T02:40:14.828Z,35.42
2023-03-20T02:42:44.197Z,33.13
2023-03-20T02:45:10.685Z,32.92
2023-03-20T02:47:41.715Z,28.65
2023-03-20T02:50:27.277Z,30.40
2023-03-20T02:53:03.578Z,28.92
2023-03-20T02:55:30.471Z,28.10
2023-03-20T02:58:22.824Z,27.85
2023-03-20T03:00:53.287Z,27.70
2023-03-20T03:03:27.740Z,29.20
2023-03-20T03:06:01.899Z,31.80
2023-03-20T03:08:31.374Z,31.90
2023-03-20T03:11:05.110Z,32.00
2023-03-20T03:13:33.684Z,30.00
2023-03-20T03:16:06.200Z,33.55
2023-03-20T03:18:39.897Z,34.83
2023-03-20T03:21:07.621Z,34.17
2023-03-20T03:23:41.092Z,34.17
2023-03-20T03:26:08.316Z,36.90
2023-03-20T03:28:38.983Z,32.85
2023-03-20T03:31:07.406Z,38.92
2023-03-20T03:33:36.244Z,33.53
2023-03-20T03:36:12.204Z,32.63
2023-03-20T03:38:44.892Z,38.33
2023-03-20T03:41:19.008Z,36.15
2023-03-20T03:44:04.524Z,47.42
2023-03-20T03:46:49.806Z,45.30
2023-03-20T03:49:21.570Z,45.95
2023-03-20T03:51:51.658Z,48.70
2023-03-20T03:54:19.846Z,59.83
2023-03-20T03:57:02.358Z,57.92
2023-03-20T03:59:49.745Z,62.00
2023-03-20T04:02:18.187Z,68.22
2023-03-20T04:04:46.561Z,58.95
2023-03-20T04:07:14.118Z,65.22
2023-03-20T04:09:40.470Z,64.30
2023-03-20T04:12:18.444Z,64.40
2023-03-20T04:14:45.039Z,65.45
2023-03-20T04:17:11.910Z,67.63
2023-03-20T04:19:38.302Z,68.03
2023-03-20T04:22:04.694Z,62.60
2023-03-20T04:24:31.108Z,64.50
2023-03-20T04:26:57.988Z,66.63
2023-03-20T04:29:24.679Z,61.30
2023-03-20T04:32:04.981Z,63.60
2023-03-20T04:34:59.970Z,62.10
2023-03-20T04:37:41.895Z,63.22
2023-03-20T04:40:08.625Z,59.55
2023-03-20T04:42:36.377Z,63.35
2023-03-20T04:45:06.515Z,58.83
2023-03-20T04:47:33.023Z,61.45
2023-03-20T04:49:59.763Z,58.97
2023-03-20T04:52:26.082Z,60.85
2023-03-20T04:54:52.722Z,58.75
2023-03-20T04:57:19.386Z,60.85
2023-03-20T04:59:46.680Z,65.05
2023-03-20T05:02:15.218Z,65.15
2023-03-20T05:04:42.732Z,63.20
2023-03-20T05:07:10.750Z,60.28
2023-03-20T05:09:47.629Z,61.80
2023-03-20T05:12:14.830Z,61.00
2023-03-20T05:15:08.526Z,65.03
2023-03-20T05:17:51.861Z,63.63
2023-03-20T05:20:37.509Z,57.35
2023-03-20T05:23:23.348Z,57.38
2023-03-20T05:26:05.919Z,60.20
2023-03-20T05:28:55.562Z,57.75
2023-03-20T05:31:26.702Z,60.65
2023-03-20T05:34:11.370Z,55.78
2023-03-20T05:37:02.012Z,53.72
2023-03-20T05:39:40.776Z,52.63
2023-03-20T05:42:07.159Z,49.03
2023-03-20T05:44:49.443Z,51.40
2023-03-20T05:47:34.714Z,53.70
2023-03-20T05:50:19.808Z,52.65
2023-03-20T05:53:16.482Z,50.83
2023-03-20T05:56:01.875Z,52.00
2023-03-20T05:58:40.333Z,51.75
2023-03-20T06:01:22.229Z,51.97
2023-03-20T06:06:48.530Z,47.53
2023-03-20T06:09:14.967Z,46.40
2023-03-20T06:11:42.101Z,43.70
2023-03-20T06:14:08.949Z,48.50
2023-03-20T06:16:38.628Z,47.17
2023-03-20T06:19:05.728Z,48.38
2023-03-20T06:21:33.026Z,45.60
2023-03-20T06:24:00.276Z,43.08
2023-03-20T06:26:28.315Z,46.30
2023-03-20T06:29:03.229Z,41.95
2023-03-20T06:31:31.338Z,48.15
2023-03-20T06:33:59.864Z,46.95
2023-03-20T06:36:26.927Z,47.03
2023-03-20T06:38:59.829Z,45.13
2023-03-20T06:41:34.193Z,47.53
2023-03-20T06:44:04.056Z,47.17
2023-03-20T06:46:50.550Z,42.58
2023-03-20T06:49:17.126Z,44.42
2023-03-20T06:51:45.524Z,48.47
2023-03-20T06:54:12.047Z,41.75
2023-03-20T06:56:38.528Z,39.78
2023-03-20T06:59:04.952Z,39.15
2023-03-20T07:01:32.077Z,35.05
2023-03-20T07:03:59.086Z,36.40
2023-03-20T07:06:31.086Z,36.72
2023-03-20T07:08:58.399Z,33.15
2023-03-20T07:11:25.042Z,31.42
2023-03-20T07:13:54.360Z,35.50
2023-03-20T07:16:32.118Z,31.85
2023-03-20T07:18:58.827Z,37.35
2023-03-20T07:21:26.647Z,38.40
2023-03-20T07:23:53.855Z,34.92
2023-03-20T07:26:20.861Z,36.40
2023-03-20T07:28:47.543Z,33.38
2023-03-20T07:31:25.380Z,33.28
2023-03-20T07:34:01.816Z,31.08
2023-03-20T07:36:29.087Z,33.17
2023-03-20T07:38:55.791Z,34.70
2023-03-20T07:41:22.667Z,37.45
2023-03-20T07:43:59.960Z,33.88
2023-03-20T07:46:44.445Z,35.25
2023-03-20T07:49:11.769Z,36.17
2023-03-20T07:51:38.791Z,39.00
2023-03-20T07:54:05.795Z,35.05
2023-03-20T07:56:32.255Z,38.70
2023-03-20T07:58:58.589Z,38.92
2023-03-20T08:01:26.040Z,34.00
2023-03-20T08:03:52.808Z,33.95
2023-03-20T08:06:19.448Z,35.20
2023-03-20T08:08:46.093Z,35.83
2023-03-20T08:11:12.957Z,35.35
2023-03-20T08:13:39.548Z,40.75
2023-03-20T08:16:06.439Z,35.80
2023-03-20T08:18:32.880Z,40.65
2023-03-20T08:20:59.208Z,40.00
2023-03-20T08:23:26.449Z,38.00
2023-03-20T08:25:54.503Z,38.50
2023-03-20T08:28:21.515Z,45.95
2023-03-20T08:30:48.018Z,42.08
2023-03-20T08:33:15.976Z,42.10
2023-03-20T08:35:43.474Z,41.22
2023-03-20T08:38:12.486Z,39.47
2023-03-20T08:40:41.338Z,40.40
2023-03-20T08:43:08.951Z,40.35
2023-03-20T08:45:35.912Z,38.50
2023-03-20T08:48:02.854Z,38.83
2023-03-20T08:50:30.567Z,37.70
2023-03-20T08:52:57.199Z,34.58
2023-03-20T08:55:23.860Z,31.80
2023-03-20T08:57:50.488Z,26.95
2023-03-20T09:00:17.297Z,25.95
2023-03-20T09:02:48.214Z,21.63
2023-03-20T09:05:14.642Z,21.65
2023-03-20T09:07:41.174Z,23.08
2023-03-20T09:10:08.362Z,26.10
2023-03-20T09:12:36.113Z,26.35
2023-03-20T09:15:02.786Z,25.13
2023-03-20T09:17:29.415Z,26.40
2023-03-20T09:19:55.836Z,23.80
2023-03-20T09:22:22.606Z,25.02
2023-03-20T09:24:49.193Z,27.17
2023-03-20T09:27:16.286Z,29.00
2023-03-20T09:29:44.206Z,25.67
2023-03-20T09:32:14.412Z,26.02
2023-03-20T09:34:41.044Z,25.20
2023-03-20T09:37:07.791Z,24.83
2023-03-20T09:39:35.198Z,26.02
2023-03-20T09:42:22.450Z,27.40
2023-03-20T09:45:01.212Z,27.15
2023-03-20T09:47:27.606Z,28.77
2023-03-20T09:49:59.576Z,27.15
2023-03-20T09:52:37.155Z,24.05
2023-03-20T09:55:12.217Z,26.65
2023-03-20T09:57:43.053Z,24.35
2023-03-20T10:00:14.382Z,24.17
2023-03-20T10:02:52.206Z,18.90
2023-03-20T10:05:22.517Z,21.25
2023-03-20T10:07:49.518Z,19.20
2023-03-20T10:10:16.789Z,16.25
2023-03-20T10:13:03.056Z,19.60
2023-03-20T10:15:38.784Z,21.02
2023-03-20T10:18:13.052Z,21.77
2023-03-20T10:20:45.589Z,22.55
2023-03-20T10:23:21.227Z,21.02
2023-03-20T10:25:53.718Z,25.25
2023-03-20T10:28:22.437Z,24.83
2023-03-20T10:30:52.307Z,23.52
2023-03-20T10:33:27.897Z,24.20
2023-03-20T10:35:57.375Z,21.73
2023-03-20T10:38:35.090Z,23.55
2023-03-20T10:41:01.864Z,20.17
2023-03-20T10:43:32.969Z,16.75
2023-03-20T10:46:15.233Z,13.98
2023-03-20T10:48:50.997Z,13.50
2023-03-20T10:51:22.822Z,14.32
2023-03-20T10:53:53.841Z,14.05
2023-03-20T10:56:27.278Z,14.40
2023-03-20T10:58:57.392Z,15.32
2023-03-20T11:01:25.273Z,14.23
2023-03-20T11:03:51.794Z,14.50
2023-03-20T11:06:20.185Z,16.88
2023-03-20T11:08:49.064Z,14.20
2023-03-20T11:11:28.148Z,15.93
2023-03-20T11:13:54.836Z,14.38
2023-03-20T11:16:41.000Z,12.38
2023-03-20T11:19:08.840Z,10.38
2023-03-20T11:21:37.124Z,12.70
2023-03-20T11:24:05.598Z,10.88
2023-03-20T11:26:37.842Z,11.27
2023-03-20T11:29:11.823Z,8.60
2023-03-20T11:31:41.342Z,8.23
2023-03-20T11:34:11.529Z,8.23
2023-03-20T11:36:41.627Z,6.40
2023-03-20T11:39:08.124Z,6.72
2023-03-20T11:41:35.297Z,6.07
2023-03-20T11:44:02.030Z,8.80
2023-03-20T11:46:28.724Z,8.13
2023-03-20T11:49:03.280Z,6.78
2023-03-20T11:51:30.847Z,7.55
2023-03-20T11:54:02.340Z,5.75
2023-03-20T11:56:30.179Z,6.43
2023-03-20T11:58:58.151Z,5.90
2023-03-20T12:01:25.694Z,5.22
2023-03-20T12:03:55.797Z,5.57
2023-03-20T12:06:24.918Z,6.07
2023-03-20T12:08:59.635Z,6.45
2023-03-20T12:11:32.875Z,9.80
2023-03-20T12:14:00.705Z,4.35
2023-03-20T12:16:27.962Z,3.78
2023-03-20T12:18:56.423Z,4.90
2023-03-20T12:21:24.408Z,4.25
2023-03-20T12:23:57.011Z,3.83
2023-03-20T12:26:35.708Z,4.60
2023-03-20T12:29:09.674Z,4.55
2023-03-20T12:31:39.674Z,4.68
2023-03-20T12:34:28.253Z,3.50
2023-03-20T12:36:57.657Z,3.75
2023-03-20T12:39:24.249Z,3.78
2023-03-20T12:42:10.860Z,3.55
2023-03-20T12:44:46.606Z,3.35
2023-03-20T12:47:13.607Z,2.67
2023-03-20T12:49:39.985Z,4.88
2023-03-20T12:52:09.366Z,3.35
2023-03-20T12:54:43.937Z,2.55
2023-03-20T12:57:34.227Z,2.53
2023-03-20T13:00:20.206Z,2.42
2023-03-20T13:03:11.466Z,1.65
2023-03-20T13:05:44.821Z,2.95
2023-03-20T13:08:17.319Z,1.50
2023-03-20T13:11:06.312Z,3.03
2023-03-20T13:13:32.726Z,2.28
2023-03-20T13:16:09.722Z,1.85
2023-03-20T13:18:48.790Z,2.58
2023-03-20T13:21:23.123Z,1.60
2023-03-20T13:24:03.324Z,3.80
2023-03-20T13:26:37.331Z,3.60
2023-03-20T13:29:08.596Z,2.38
2023-03-20T13:31:41.550Z,2.35
2023-03-20T13:34:12.907Z,3.13
2023-03-20T13:36:45.953Z,2.10
2023-03-20T13:39:14.321Z,2.35
2023-03-20T13:41:41.146Z,2.70
2023-03-20T13:44:10.811Z,2.72
2023-03-20T13:46:45.726Z,3.20
2023-03-20T13:49:15.695Z,3.78
2023-03-20T13:51:45.801Z,5.65
2023-03-20T13:54:22.400Z,3.08
2023-03-20T13:56:48.725Z,2.47
2023-03-20T13:59:34.570Z,3.55
2023-03-20T14:02:09.744Z,2.85
2023-03-20T14:04:36.831Z,4.18
2023-03-20T14:07:23.297Z,3.58
2023-03-20T14:09:53.840Z,3.55
2023-03-20T14:12:23.862Z,2.53
2023-03-20T14:14:53.071Z,3.38
2023-03-20T14:17:29.868Z,4.95
2023-03-20T14:19:57.244Z,5.05
2023-03-20T14:22:27.667Z,6.15
2023-03-20T14:24:57.105Z,4.80
2023-03-20T14:27:42.829Z,3.40
2023-03-20T14:30:37.057Z,5.20
2023-03-20T14:33:12.986Z,5.28
2023-03-20T14:35:44.544Z,8.55
2023-03-20T14:38:14.078Z,6.55
2023-03-20T14:40:52.107Z,5.45
2023-03-20T14:43:25.393Z,8.18
2023-03-20T14:45:57.195Z,6.35
2023-03-20T14:48:24.989Z,5.38
2023-03-20T14:50:57.235Z,7.07
2023-03-20T14:53:25.363Z,4.78
2023-03-20T14:55:58.525Z,6.80
2023-03-20T14:58:46.183Z,5.90
2023-03-20T15:01:20.091Z,6.70
2023-03-20T15:06:17.810Z,4.97
2023-03-20T15:08:51.183Z,5.47
2023-03-20T15:11:18.634Z,5.80
2023-03-20T15:13:46.145Z,3.53
2023-03-20T15:16:14.957Z,4.43
2023-03-20T15:18:43.095Z,2.65
2023-03-20T15:21:21.938Z,4.78
2023-03-20T15:23:48.432Z,3.28
2023-03-20T15:26:16.581Z,3.20
2023-03-20T15:28:43.933Z,2.75
2023-03-20T15:31:19.418Z,2.88
2023-03-20T15:33:45.871Z,3.35
2023-03-20T15:36:20.330Z,2.03
2023-03-20T15:38:47.739Z,1.70
2023-03-20T15:41:24.370Z,3.60
2023-03-20T15:43:51.176Z,4.03
2023-03-20T15:46:19.128Z,1.70
2023-03-20T15:48:50.896Z,2.88
2023-03-20T15:51:18.462Z,3.83
2023-03-20T15:53:46.060Z,2.92
2023-03-20T15:56:18.762Z,3.28
2023-03-20T15:58:46.265Z,2.55
2023-03-20T16:01:23.640Z,2.13
2023-03-20T16:03:50.955Z,2.78
2023-03-20T16:06:19.316Z,2.95
2023-03-20T16:08:46.892Z,3.22
2023-03-20T16:11:14.396Z,3.00
2023-03-20T16:13:42.953Z,2.95
2023-03-20T16:16:13.486Z,2.38
2023-03-20T16:18:40.583Z,4.78
2023-03-20T16:21:13.192Z,3.13
2023-03-20T16:23:41.473Z,2.67
2023-03-20T16:26:10.994Z,5.97
2023-03-20T16:28:38.268Z,2.95
2023-03-20T16:31:09.220Z,3.33
2023-03-20T16:33:36.536Z,3.90
2023-03-20T16:36:04.245Z,5.15
2023-03-20T16:38:36.361Z,3.67
2023-03-20T16:41:21.779Z,5.22
2023-03-20T16:43:51.787Z,3.85
2023-03-20T16:46:24.860Z,5.45
2023-03-20T16:48:52.759Z,5.30
2023-03-20T16:51:31.810Z,4.90
2023-03-20T16:54:02.289Z,7.07
2023-03-20T16:56:33.078Z,5.70
2023-03-20T16:59:05.763Z,5.30
2023-03-20T17:01:33.171Z,3.65
2023-03-20T17:04:13.601Z,5.55
2023-03-20T17:06:44.551Z,5.28
2023-03-20T17:09:12.178Z,7.95
2023-03-20T17:11:40.201Z,8.55
2023-03-20T17:14:07.050Z,7.15
2023-03-20T17:16:34.236Z,6.80
2023-03-20T17:19:10.556Z,6.90
2023-03-20T17:21:37.117Z,6.78
2023-03-20T17:24:03.697Z,4.57
2023-03-20T17:26:30.675Z,5.15
2023-03-20T17:28:57.818Z,6.65
2023-03-20T17:31:25.012Z,7.22
2023-03-20T17:33:57.865Z,4.70
2023-03-20T17:36:30.211Z,6.95
2023-03-20T17:38:57.569Z,5.82
2023-03-20T17:41:25.163Z,5.40
2023-03-20T17:43:52.258Z,5.75
2023-03-20T17:46:27.142Z,4.85
2023-03-20T17:49:07.829Z,5.43
2023-03-20T17:51:35.490Z,6.75
2023-03-20T17:54:02.098Z,4.03
2023-03-20T17:56:32.752Z,5.25
2023-03-20T17:59:00.188Z,5.00
2023-03-20T18:01:27.288Z,5.32
2023-03-20T18:03:55.016Z,6.95
2023-03-20T18:06:24.034Z,8.30
2023-03-20T18:08:50.874Z,5.60
2023-03-20T18:11:27.664Z,5.28
2023-03-20T18:13:54.182Z,7.60
2023-03-20T18:16:21.933Z,6.88
2023-03-20T18:18:48.959Z,5.00
2023-03-20T18:21:16.711Z,8.23
2023-03-20T18:23:43.964Z,7.05
2023-03-20T18:26:18.250Z,5.07
2023-03-20T18:28:45.065Z,5.50
2023-03-20T18:31:13.103Z,4.80
2023-03-20T18:33:40.142Z,5.72
2023-03-20T18:36:09.204Z,5.20
2023-03-20T18:38:35.892Z,5.72
2023-03-20T18:41:02.286Z,4.60
2023-03-20T18:43:28.637Z,6.30
2023-03-20T18:45:58.901Z,4.47
2023-03-20T18:48:25.799Z,7.32
2023-03-20T18:51:07.754Z,7.35
2023-03-20T18:53:36.783Z,5.45
2023-03-20T18:56:04.118Z,5.88
2023-03-20T18:58:31.714Z,6.65
2023-03-20T19:01:00.612Z,5.75
2023-03-20T19:03:28.923Z,6.68
2023-03-20T19:05:57.856Z,6.80
2023-03-20T19:08:24.570Z,6.00
2023-03-20T19:10:51.588Z,5.75
2023-03-20T19:13:19.364Z,6.70
2023-03-20T19:15:46.298Z,7.15
2023-03-20T19:18:17.759Z,7.22
2023-03-20T19:20:47.033Z,6.60
2023-03-20T19:23:14.419Z,8.38
2023-03-20T19:25:43.985Z,9.55
2023-03-20T19:28:21.520Z,8.43
2023-03-20T19:30:49.116Z,5.43
2023-03-20T19:33:16.640Z,5.25
2023-03-20T19:36:01.946Z,9.18
2023-03-20T19:38:30.766Z,7.78
2023-03-20T19:40:58.091Z,7.72
2023-03-20T19:43:26.134Z,7.80
2023-03-20T19:45:58.048Z,7.57
2023-03-20T19:48:27.048Z,6.25
2023-03-20T19:50:53.808Z,6.72
2023-03-20T19:53:21.475Z,4.03
2023-03-20T19:55:48.418Z,6.72
2023-03-20T19:58:14.939Z,5.45
2023-03-20T20:00:59.165Z,6.05
2023-03-20T20:03:27.301Z,6.65
2023-03-20T20:05:54.688Z,11.63
2023-03-20T20:08:41.309Z,5.28
2023-03-20T20:11:14.369Z,5.82
2023-03-20T20:14:03.794Z,5.28
2023-03-20T20:16:28.094Z,6.65
2023-03-20T20:18:54.498Z,4.47
2023-03-20T20:24:07.635Z,7.13
2023-03-20T20:26:38.872Z,4.15
2023-03-20T20:29:07.793Z,5.30
2023-03-20T20:31:34.187Z,5.82
2023-03-20T20:34:45.304Z,8.45
2023-03-20T20:39:35.233Z,4.93
2023-03-20T20:42:01.860Z,8.27
2023-03-20T20:44:28.392Z,6.30
2023-03-20T20:46:57.683Z,5.75
2023-03-20T20:49:24.243Z,6.13
2023-03-20T20:51:52.604Z,5.93
2023-03-20T20:54:19.134Z,6.15
2023-03-20T20:56:46.398Z,4.00
2023-03-20T20:59:13.564Z,4.93
2023-03-20T21:01:40.585Z,7.65
2023-03-20T21:04:07.197Z,8.13
2023-03-20T21:07:05.795Z,7.43
2023-03-20T21:09:20.496Z,8.85
2023-03-20T21:11:47.273Z,5.68
2023-03-20T21:14:14.003Z,6.35
2023-03-20T21:16:40.343Z,8.40
2023-03-20T21:19:07.368Z,9.70
2023-03-20T21:21:35.034Z,6.40
2023-03-20T21:24:02.514Z,7.25
2023-03-20T21:26:28.942Z,9.70
2023-03-20T21:28:55.921Z,6.10
2023-03-20T21:31:26.777Z,5.53
2023-03-20T21:33:55.576Z,7.50
2023-03-20T21:36:23.437Z,5.38
2023-03-20T21:39:07.317Z,9.25
2023-03-20T21:41:34.694Z,4.72
2023-03-20T21:44:01.679Z,9.82
2023-03-20T21:58:21.392Z,5.85
2023-03-20T22:03:14.044Z,6.82
2023-03-20T22:06:38.561Z,7.38
2023-03-20T22:12:07.870Z,8.45
2023-03-20T22:15:03.854Z,8.80
2023-03-20T22:17:45.610Z,9.40
2023-03-20T22:26:23.962Z,8.98
2023-03-20T22:37:24.618Z,7.45
2023-03-20T22:40:18.136Z,8.63
2023-03-20T22:45:02.820Z,6.15
2023-03-20T22:47:31.787Z,5.72
2023-03-20T22:49:58.885Z,6.40
2023-03-20T22:52:35.070Z,9.73
2023-03-20T22:55:09.652Z,7.70
2023-03-20T22:57:47.411Z,8.18
2023-03-20T23:00:21.375Z,7.38
2023-03-20T23:02:52.908Z,7.03
2023-03-20T23:05:20.304Z,8.75
2023-03-20T23:07:50.899Z,6.18
2023-03-20T23:10:18.539Z,8.30
2023-03-20T23:12:44.961Z,8.75
2023-03-20T23:15:13.013Z,13.30
2023-03-20T23:17:39.430Z,8.15
2023-03-20T23:20:12.294Z,7.88
2023-03-20T23:22:40.576Z,5.63
2023-03-20T23:25:20.705Z,9.82
2023-03-20T23:27:50.405Z,7.75
2023-03-20T23:30:16.911Z,4.78
2023-03-20T23:32:43.439Z,7.72
2023-03-20T23:35:10.305Z,6.38
2023-03-20T23:37:37.011Z,7.15
2023-03-20T23:40:04.712Z,8.82
2023-03-20T23:42:31.340Z,8.13
2023-03-20T23:45:04.494Z,11.02
2023-03-20T23:47:44.497Z,8.27
2023-03-20T23:50:20.794Z,7.85
2023-03-20T23:53:01.073Z,6.43
2023-03-20T23:55:30.722Z,9.02
2023-03-20T23:57:57.223Z,10.65
